createdAt,value
2023-04-05T00:01:58.598Z,-3274.30
2023-04-05T00:04:25.391Z,-3274.30
2023-04-05T00:06:52.964Z,-3274.30
2023-04-05T00:09:21.072Z,-3274.20
2023-04-05T00:11:48.538Z,-3274.20
2023-04-05T00:14:15.401Z,-3274.20
2023-04-05T00:16:43.045Z,-3274.20
2023-04-05T00:19:12.309Z,-3274.20
2023-04-05T00:21:40.333Z,-3274.10
2023-04-05T00:24:07.990Z,-3274.00
2023-04-05T00:26:36.212Z,-3273.90
2023-04-05T00:29:03.165Z,-3273.80
2023-04-05T00:31:30.672Z,-3273.80
2023-04-05T00:33:57.623Z,-3273.90
2023-04-05T00:36:24.639Z,-3273.90
2023-04-05T00:38:51.428Z,-3273.90
2023-04-05T00:41:18.321Z,-3274.00
2023-04-05T00:43:45.109Z,-3274.00
2023-04-05T00:46:12.318Z,-3274.00
2023-04-05T00:48:39.564Z,-3274.00
2023-04-05T00:51:09.650Z,-3274.00
2023-04-05T00:53:37.678Z,-3273.90
2023-04-05T00:56:05.005Z,-3274.00
2023-04-05T00:58:31.856Z,-3273.90
2023-04-05T01:01:16.647Z,-3273.80
2023-04-05T01:03:47.726Z,-3273.80
2023-04-05T01:06:23.350Z,-3273.80
2023-04-05T01:09:06.486Z,-3273.90
2023-04-05T01:11:34.047Z,-3273.80
2023-04-05T01:14:01.754Z,-3273.80
2023-04-05T01:16:29.259Z,-3273.70
2023-04-05T01:18:56.790Z,-3273.70
2023-04-05T01:21:37.926Z,-3273.60
2023-04-05T01:24:16.254Z,-3273.60
2023-04-05T01:27:07.565Z,-3273.60
2023-04-05T01:30:13.500Z,-3273.50
2023-04-05T01:32:55.314Z,-3273.40
2023-04-05T01:35:28.056Z,-3273.40
2023-04-05T01:38:00.384Z,-3273.40
2023-04-05T01:40:27.676Z,-3273.40
2023-04-05T01:42:54.510Z,-3273.40
2023-04-05T01:45:21.337Z,-3273.40
2023-04-05T01:47:48.187Z,-3273.40
2023-04-05T01:50:15.539Z,-3273.30
2023-04-05T01:52:42.267Z,-3273.30
2023-04-05T01:55:09.113Z,-3273.30
2023-04-05T01:57:35.891Z,-3273.20
2023-04-05T02:00:02.701Z,-3273.20
2023-04-05T02:02:30.065Z,-3273.20
2023-04-05T02:04:56.947Z,-3273.20
2023-04-05T02:07:24.358Z,-3273.10
2023-04-05T02:09:51.078Z,-3273.10
2023-04-05T02:12:18.372Z,-3273.10
2023-04-05T02:14:45.074Z,-3273.00
2023-04-05T02:17:12.639Z,-3273.00
2023-04-05T02:19:42.205Z,-3273.00
2023-04-05T02:22:10.199Z,-3272.90
2023-04-05T02:24:37.000Z,-3272.80
2023-04-05T02:27:04.134Z,-3272.80
2023-04-05T02:29:33.295Z,-3272.80
2023-04-05T02:32:00.217Z,-3272.80
2023-04-05T02:34:27.274Z,-3272.80
2023-04-05T02:36:54.362Z,-3272.80
2023-04-05T02:39:21.347Z,-3272.80
2023-04-05T02:41:48.123Z,-3272.80
2023-04-05T02:44:14.858Z,-3272.80
2023-04-05T02:46:41.888Z,-3272.80
2023-04-05T02:49:08.684Z,-3272.80
2023-04-05T02:51:35.428Z,-3272.80
2023-04-05T02:54:03.262Z,-3272.80
2023-04-05T02:56:30.407Z,-3272.80
2023-04-05T02:58:57.187Z,-3272.80
2023-04-05T03:01:25.008Z,-3272.70
2023-04-05T03:03:52.049Z,-3272.70
2023-04-05T03:06:20.710Z,-3272.70
2023-04-05T03:08:49.050Z,-3272.70
2023-04-05T03:11:16.080Z,-3272.60
2023-04-05T03:13:43.034Z,-3272.50
2023-04-05T03:16:10.045Z,-3272.50
2023-04-05T03:18:36.903Z,-3272.40
2023-04-05T03:21:04.446Z,-3272.40
2023-04-05T03:23:32.341Z,-3272.50
2023-04-05T03:26:01.372Z,-3272.50
2023-04-05T03:28:30.095Z,-3272.60
2023-04-05T03:30:56.911Z,-3272.60
2023-04-05T03:33:23.788Z,-3272.60
2023-04-05T03:35:50.891Z,-3272.50
2023-04-05T03:38:17.703Z,-3272.50
2023-04-05T03:40:44.526Z,-3272.50
2023-04-05T03:43:11.396Z,-3272.50
2023-04-05T03:45:38.203Z,-3272.50
2023-04-05T03:48:07.143Z,-3272.50
2023-04-05T03:50:33.969Z,-3272.50
2023-04-05T03:53:00.744Z,-3272.60
2023-04-05T03:55:31.202Z,-3272.60
2023-04-05T03:57:57.968Z,-3272.50
2023-04-05T04:00:24.735Z,-3272.50
2023-04-05T04:02:52.641Z,-3272.40
2023-04-05T04:05:21.358Z,-3272.40
2023-04-05T04:07:48.500Z,-3272.30
2023-04-05T04:10:19.751Z,-3272.30
2023-04-05T04:12:46.573Z,-3272.10
2023-04-05T04:15:13.349Z,-3272.10
2023-04-05T04:17:40.382Z,-3272.10
2023-04-05T04:20:10.912Z,-3272.10
2023-04-05T04:22:40.343Z,-3272.10
2023-04-05T04:25:12.723Z,-3272.10
2023-04-05T04:27:42.507Z,-3272.10
2023-04-05T04:30:14.788Z,-3272.10
2023-04-05T04:32:52.175Z,-3272.00
2023-04-05T04:35:30.064Z,-3272.00
2023-04-05T04:37:58.874Z,-3272.00
2023-04-05T04:40:38.617Z,-3272.00
2023-04-05T04:43:10.353Z,-3272.00
2023-04-05T04:45:37.885Z,-3272.00
2023-04-05T04:48:05.197Z,-3272.00
2023-04-05T04:50:32.596Z,-3272.00
2023-04-05T04:53:00.534Z,-3272.00
2023-04-05T04:55:30.346Z,-3272.00
2023-04-05T04:57:57.076Z,-3272.00
2023-04-05T05:00:24.849Z,-3272.00
2023-04-05T05:02:52.904Z,-3272.00
2023-04-05T05:05:23.137Z,-3272.10
2023-04-05T05:07:50.526Z,-3272.10
2023-04-05T05:10:17.517Z,-3272.20
2023-04-05T05:12:44.604Z,-3272.20
2023-04-05T05:15:12.116Z,-3272.10
2023-04-05T05:17:39.586Z,-3272.20
2023-04-05T05:20:10.872Z,-3272.20
2023-04-05T05:22:38.738Z,-3272.30
2023-04-05T05:25:07.124Z,-3272.40
2023-04-05T05:27:34.220Z,-3272.50
2023-04-05T05:30:01.263Z,-3272.60
2023-04-05T05:32:28.641Z,-3272.70
2023-04-05T05:34:55.948Z,-3272.70
2023-04-05T05:37:30.768Z,-3272.80
2023-04-05T05:39:57.604Z,-3272.80
2023-04-05T05:42:24.298Z,-3272.90
2023-04-05T05:44:51.032Z,-3273.00
2023-04-05T05:47:17.799Z,-3273.10
2023-04-05T05:49:44.515Z,-3273.10
2023-04-05T05:52:11.275Z,-3273.10
2023-04-05T05:54:38.026Z,-3273.20
2023-04-05T05:57:04.972Z,-3273.30
2023-04-05T05:59:31.781Z,-3273.40
2023-04-05T06:01:58.620Z,-3273.60
2023-04-05T06:04:25.689Z,-3273.60
2023-04-05T06:06:52.539Z,-3273.70
2023-04-05T06:09:19.291Z,-3273.80
2023-04-05T06:11:55.861Z,-3273.90
2023-04-05T06:14:24.218Z,-3274.00
2023-04-05T06:16:51.097Z,-3274.00
2023-04-05T06:19:17.850Z,-3274.10
2023-04-05T06:21:44.556Z,-3274.20
2023-04-05T06:24:11.323Z,-3274.30
2023-04-05T06:26:38.021Z,-3274.40
2023-04-05T06:29:04.766Z,-3274.70
2023-04-05T06:31:33.760Z,-3274.80
2023-04-05T06:34:01.149Z,-3274.90
2023-04-05T06:36:31.853Z,-3275.10
2023-04-05T06:38:59.287Z,-3275.10
2023-04-05T06:41:29.237Z,-3275.20
2023-04-05T06:43:56.419Z,-3275.40
2023-04-05T06:46:24.096Z,-3275.60
2023-04-05T06:48:52.204Z,-3275.80
2023-04-05T06:51:19.603Z,-3275.90
2023-04-05T06:53:46.575Z,-3275.90
2023-04-05T06:56:13.406Z,-3275.80
2023-04-05T06:58:40.516Z,-3276.10
2023-04-05T07:01:07.535Z,-3276.00
2023-04-05T07:03:34.366Z,-3276.00
2023-04-05T07:06:01.623Z,-3276.20
2023-04-05T07:08:31.237Z,-3276.30
2023-04-05T07:10:58.562Z,-3276.40
2023-04-05T07:13:26.049Z,-3276.40
2023-04-05T07:15:59.117Z,-3276.50
2023-04-05T07:18:26.076Z,-3276.70
2023-04-05T07:20:54.655Z,-3276.70
2023-04-05T07:23:22.999Z,0.00
2023-04-05T07:25:50.145Z,0.20
2023-04-05T07:28:16.910Z,0.40
2023-04-05T07:30:44.456Z,0.60
2023-04-05T07:33:12.244Z,0.80
2023-04-05T07:35:39.089Z,0.80
2023-04-05T07:38:05.830Z,0.90
2023-04-05T07:40:33.653Z,1.00
2023-04-05T07:43:01.178Z,0.90
2023-04-05T07:45:29.804Z,1.10
2023-04-05T07:47:56.568Z,1.10
2023-04-05T07:50:23.417Z,1.10
2023-04-05T07:52:50.133Z,1.20
2023-04-05T07:55:17.160Z,1.20
2023-04-05T07:57:43.878Z,1.20
2023-04-05T08:00:13.036Z,1.40
2023-04-05T08:02:40.723Z,1.40
2023-04-05T08:05:08.120Z,1.80
2023-04-05T08:07:34.884Z,2.00
2023-04-05T08:10:01.845Z,2.10
2023-04-05T08:12:31.824Z,2.20
2023-04-05T08:14:58.628Z,2.30
2023-04-05T08:17:28.112Z,2.40
2023-04-05T08:19:55.017Z,2.40
2023-04-05T08:22:21.903Z,2.50
2023-04-05T08:24:48.663Z,2.50
2023-04-05T08:27:15.638Z,2.70
2023-04-05T08:29:42.383Z,2.90
2023-04-05T08:32:09.322Z,3.10
2023-04-05T08:34:36.276Z,3.40
2023-04-05T08:37:03.083Z,3.70
2023-04-05T08:39:29.861Z,3.90
2023-04-05T08:42:29.182Z,4.10
2023-04-05T08:44:57.976Z,4.20
2023-04-05T08:47:25.663Z,4.40
2023-04-05T08:49:52.683Z,4.60
2023-04-05T08:52:19.609Z,4.70
2023-04-05T08:54:46.352Z,4.80
2023-04-05T08:57:14.358Z,4.90
2023-04-05T08:59:43.748Z,4.90
2023-04-05T09:02:19.576Z,4.90
2023-04-05T09:04:48.429Z,5.00
2023-04-05T09:07:16.398Z,5.20
2023-04-05T09:09:47.438Z,5.20
2023-04-05T09:12:15.499Z,5.40
2023-04-05T09:14:43.295Z,5.50
2023-04-05T09:17:11.049Z,5.60
2023-04-05T09:19:38.031Z,5.60
2023-04-05T09:22:08.608Z,5.60
2023-04-05T09:24:46.884Z,5.60
2023-04-05T09:27:18.887Z,5.60
2023-04-05T09:29:48.781Z,5.50
2023-04-05T09:32:18.107Z,5.40
2023-04-05T09:34:45.340Z,5.40
2023-04-05T09:37:20.309Z,5.40
2023-04-05T09:39:52.419Z,5.40
2023-04-05T09:42:22.632Z,5.60
2023-04-05T09:44:52.080Z,5.60
2023-04-05T09:47:20.548Z,5.80
2023-04-05T09:49:47.638Z,6.20
2023-04-05T09:52:22.110Z,6.40
2023-04-05T09:54:51.198Z,6.50
2023-04-05T09:57:18.944Z,6.70
2023-04-05T09:59:47.156Z,6.90
2023-04-05T10:02:14.268Z,6.80
2023-04-05T10:04:46.551Z,6.70
2023-04-05T10:07:15.045Z,6.80
2023-04-05T10:09:48.716Z,6.80
2023-04-05T10:12:27.002Z,6.60
2023-04-05T10:14:55.026Z,6.90
2023-04-05T10:17:39.094Z,6.50
2023-04-05T10:20:17.330Z,6.80
2023-04-05T10:22:52.316Z,7.10
2023-04-05T10:25:24.562Z,6.80
2023-04-05T10:27:58.103Z,6.80
2023-04-05T10:30:25.176Z,6.70
2023-04-05T10:32:52.200Z,7.00
2023-04-05T10:35:29.355Z,7.40
2023-04-05T10:38:07.809Z,8.20
2023-04-05T10:40:36.109Z,8.60
2023-04-05T10:43:07.233Z,9.10
2023-04-05T10:45:36.829Z,9.10
2023-04-05T10:48:26.664Z,9.30
2023-04-05T10:50:54.137Z,8.50
2023-04-05T10:53:22.016Z,8.10
2023-04-05T10:55:50.606Z,8.20
2023-04-05T10:58:18.222Z,7.90
2023-04-05T11:00:47.867Z,7.60
2023-04-05T11:03:41.354Z,7.80
2023-04-05T11:06:30.582Z,7.10
2023-04-05T11:09:07.997Z,7.30
2023-04-05T11:11:40.438Z,7.60
2023-04-05T11:14:26.790Z,7.80
2023-04-05T11:16:59.660Z,7.40
2023-04-05T11:19:47.980Z,7.10
2023-04-05T11:22:25.421Z,7.30
2023-04-05T11:24:59.083Z,7.10
2023-04-05T11:27:29.614Z,7.10
2023-04-05T11:29:58.390Z,7.20
2023-04-05T11:33:07.761Z,7.60
2023-04-05T11:35:34.997Z,7.30
2023-04-05T11:38:01.694Z,7.10
2023-04-05T11:40:36.649Z,7.30
2023-04-05T11:43:10.359Z,7.30
2023-04-05T11:45:38.904Z,6.90
2023-04-05T11:48:07.385Z,6.70
2023-04-05T11:50:35.780Z,6.30
2023-04-05T11:53:12.874Z,6.20
2023-04-05T11:55:42.143Z,6.40
2023-04-05T11:58:16.638Z,6.80
2023-04-05T12:00:45.252Z,6.80
2023-04-05T12:03:16.676Z,7.40
2023-04-05T12:05:54.142Z,8.50
2023-04-05T12:08:23.487Z,9.60
2023-04-05T12:10:58.032Z,9.90
2023-04-05T12:13:29.389Z,10.70
2023-04-05T12:16:07.333Z,11.40
2023-04-05T12:18:36.839Z,11.70
2023-04-05T12:21:09.592Z,10.90
2023-04-05T12:23:38.117Z,10.20
2023-04-05T12:26:07.830Z,8.80
2023-04-05T12:28:57.669Z,8.40
2023-04-05T12:31:47.200Z,8.10
2023-04-05T12:34:15.230Z,7.80
2023-04-05T12:36:46.682Z,7.70
2023-04-05T12:39:16.381Z,8.20
2023-04-05T12:41:43.507Z,8.50
2023-04-05T12:44:17.397Z,8.20
2023-04-05T12:46:48.134Z,8.00
2023-04-05T12:49:19.150Z,7.80
2023-04-05T12:51:47.638Z,7.80
2023-04-05T12:54:20.181Z,8.30
2023-04-05T12:56:49.746Z,10.10
2023-04-05T12:59:16.746Z,11.70
2023-04-05T13:01:43.795Z,12.30
2023-04-05T13:06:41.158Z,13.90
2023-04-05T13:09:08.251Z,13.30
2023-04-05T13:11:35.099Z,14.40
2023-04-05T13:14:02.286Z,13.90
2023-04-05T13:16:29.550Z,14.60
2023-04-05T13:18:56.604Z,14.40
2023-04-05T13:21:24.021Z,14.90
2023-04-05T13:23:50.973Z,14.40
2023-04-05T13:26:17.704Z,15.30
2023-04-05T13:28:44.438Z,16.30
2023-04-05T13:31:12.082Z,15.00
2023-04-05T13:33:40.644Z,14.20
2023-04-05T13:36:08.287Z,14.50
2023-04-05T13:38:35.145Z,14.60
2023-04-05T13:41:01.909Z,13.80
2023-04-05T13:43:31.249Z,11.80
2023-04-05T13:45:58.286Z,12.80
2023-04-05T13:48:25.223Z,14.20
2023-04-05T13:50:51.987Z,16.00
2023-04-05T13:53:18.700Z,17.70
2023-04-05T13:55:45.472Z,17.30
2023-04-05T13:58:14.197Z,17.60
2023-04-05T14:00:41.453Z,16.40
2023-04-05T14:03:08.854Z,15.80
2023-04-05T14:05:35.789Z,15.90
2023-04-05T14:08:02.636Z,15.20
2023-04-05T14:10:31.703Z,15.10
2023-04-05T14:12:58.488Z,15.00
2023-04-05T14:15:25.826Z,16.50
2023-04-05T14:17:53.057Z,16.30
2023-04-05T14:20:20.025Z,16.40
2023-04-05T14:22:46.985Z,16.20
2023-04-05T14:25:13.831Z,15.90
2023-04-05T14:27:42.520Z,16.90
2023-04-05T14:30:11.215Z,17.30
2023-04-05T14:32:38.373Z,16.70
2023-04-05T14:35:05.620Z,16.30
2023-04-05T14:37:32.345Z,16.10
2023-04-05T14:39:59.063Z,16.00
2023-04-05T14:42:37.132Z,15.50
2023-04-05T14:45:04.440Z,15.30
2023-04-05T14:47:31.543Z,15.10
2023-04-05T14:49:58.331Z,15.80
2023-04-05T14:52:25.403Z,16.10
2023-04-05T14:54:52.705Z,15.30
2023-04-05T14:57:19.445Z,15.40
2023-04-05T14:59:46.228Z,15.40
2023-04-05T15:02:13.241Z,15.30
2023-04-05T15:04:41.251Z,15.30
2023-04-05T15:07:09.012Z,14.90
2023-04-05T15:09:35.993Z,14.70
2023-04-05T15:12:02.812Z,15.00
2023-04-05T15:14:32.113Z,15.40
2023-04-05T15:16:59.774Z,15.40
2023-04-05T15:19:27.536Z,15.80
2023-04-05T15:21:54.388Z,15.80
2023-04-05T15:24:24.128Z,15.70
2023-04-05T15:26:50.920Z,16.50
2023-04-05T15:29:17.782Z,16.10
2023-04-05T15:31:44.578Z,15.90
2023-04-05T15:34:11.341Z,15.60
2023-04-05T15:36:38.322Z,15.90
2023-04-05T15:39:05.369Z,15.80
2023-04-05T15:41:33.533Z,15.40
2023-04-05T15:44:00.901Z,15.50
2023-04-05T15:46:29.088Z,15.60
2023-04-05T15:48:56.194Z,15.30
2023-04-05T15:51:23.566Z,15.10
2023-04-05T15:53:51.572Z,14.60
2023-04-05T15:56:18.540Z,14.30
2023-04-05T15:58:46.433Z,14.50
2023-04-05T16:01:14.207Z,14.80
2023-04-05T16:03:42.089Z,14.10
2023-04-05T16:06:09.090Z,13.90
2023-04-05T16:08:36.159Z,14.30
2023-04-05T16:11:03.297Z,13.90
2023-04-05T16:13:30.246Z,13.90
2023-04-05T16:15:57.648Z,13.70
2023-04-05T16:18:25.925Z,13.20
2023-04-05T16:20:53.168Z,12.30
2023-04-05T16:23:20.075Z,12.00
2023-04-05T16:25:47.088Z,11.90
2023-04-05T16:28:14.159Z,11.20
2023-04-05T16:30:42.721Z,11.50
2023-04-05T16:33:10.592Z,12.20
2023-04-05T16:35:38.080Z,12.50
2023-04-05T16:38:04.959Z,12.50
2023-04-05T16:40:32.821Z,12.20
2023-04-05T16:42:59.558Z,11.80
2023-04-05T16:45:28.573Z,11.50
2023-04-05T16:47:55.374Z,11.30
2023-04-05T16:50:22.181Z,10.50
2023-04-05T16:52:48.911Z,10.40
2023-04-05T16:55:16.454Z,9.60
2023-04-05T16:57:43.242Z,9.40
2023-04-05T17:00:10.426Z,8.40
2023-04-05T17:02:37.684Z,8.30
2023-04-05T17:05:05.083Z,8.10
2023-04-05T17:07:32.293Z,8.10
2023-04-05T17:10:00.739Z,8.20
2023-04-05T17:12:27.765Z,8.30
2023-04-05T17:14:54.591Z,8.20
2023-04-05T17:17:21.922Z,8.10
2023-04-05T17:19:48.840Z,7.80
2023-04-05T17:22:16.260Z,7.80
2023-04-05T17:24:46.171Z,7.60
2023-04-05T17:27:13.226Z,7.40
2023-04-05T17:29:40.452Z,7.40
2023-04-05T17:32:07.338Z,7.30
2023-04-05T17:34:34.041Z,6.90
2023-04-05T17:37:01.053Z,6.70
2023-04-05T17:39:27.785Z,6.50
2023-04-05T17:41:56.584Z,6.20
2023-04-05T17:44:23.591Z,5.80
2023-04-05T17:47:01.275Z,5.60
2023-04-05T17:49:37.421Z,5.30
2023-04-05T17:52:05.843Z,5.20
2023-04-05T17:54:36.881Z,5.10
2023-04-05T17:57:07.394Z,4.80
2023-04-05T17:59:35.314Z,4.60
2023-04-05T18:02:02.624Z,4.30
2023-04-05T18:04:29.980Z,4.20
2023-04-05T18:06:57.197Z,4.10
2023-04-05T18:09:23.964Z,4.00
2023-04-05T18:11:51.184Z,3.90
2023-04-05T18:14:18.615Z,3.80
2023-04-05T18:16:46.232Z,3.40
2023-04-05T18:19:13.470Z,3.20
2023-04-05T18:21:40.255Z,2.90
2023-04-05T18:24:07.125Z,2.80
2023-04-05T18:26:34.215Z,2.50
2023-04-05T18:29:01.502Z,2.30
2023-04-05T18:31:29.603Z,2.30
2023-04-05T18:33:57.241Z,2.20
2023-04-05T18:36:27.022Z,2.10
2023-04-05T18:38:59.867Z,1.90
2023-04-05T18:41:27.138Z,1.80
2023-04-05T18:43:54.583Z,1.80
2023-04-05T18:46:23.413Z,2.10
2023-04-05T18:48:57.674Z,2.30
2023-04-05T18:51:27.143Z,2.20
2023-04-05T18:53:54.206Z,2.10
2023-04-05T18:56:21.593Z,2.00
2023-04-05T18:58:50.059Z,2.10
2023-04-05T19:01:18.844Z,2.10
2023-04-05T19:03:46.475Z,2.00
2023-04-05T19:06:13.876Z,2.10
2023-04-05T19:08:41.409Z,1.80
2023-04-05T19:11:14.006Z,1.50
2023-04-05T19:13:42.209Z,1.20
2023-04-05T19:16:09.393Z,1.30
2023-04-05T19:18:36.387Z,1.30
2023-04-05T19:21:03.766Z,1.30
2023-04-05T19:23:30.485Z,1.30
2023-04-05T19:25:58.391Z,1.40
2023-04-05T19:28:27.238Z,1.50
2023-04-05T19:30:54.872Z,1.50
2023-04-05T19:33:21.991Z,1.40
2023-04-05T19:35:49.094Z,1.30
2023-04-05T19:38:16.286Z,1.30
2023-04-05T19:40:43.488Z,1.10
2023-04-05T19:43:11.627Z,1.10
2023-04-05T19:45:39.114Z,0.80
2023-04-05T19:48:29.216Z,0.80
2023-04-05T19:50:57.995Z,0.70
2023-04-05T19:53:51.540Z,0.70
2023-04-05T19:56:28.544Z,0.60
2023-04-05T19:59:34.340Z,0.70
2023-04-05T20:02:02.816Z,0.70
2023-04-05T20:04:34.351Z,0.80
2023-04-05T20:07:01.674Z,0.80
2023-04-05T20:09:29.747Z,0.50
2023-04-05T20:12:02.933Z,0.40
2023-04-05T20:14:46.414Z,0.40
2023-04-05T20:17:15.996Z,0.50
2023-04-05T20:19:56.629Z,0.30
2023-04-05T20:22:23.984Z,0.10
2023-04-05T20:24:51.536Z,0.00
2023-04-05T20:27:18.456Z,0.00
2023-04-05T20:29:46.045Z,0.10
2023-04-05T20:32:13.686Z,0.20
2023-04-05T20:34:43.716Z,0.10
2023-04-05T20:37:11.874Z,0.10
2023-04-05T20:39:38.809Z,0.00
2023-04-05T20:42:07.292Z,0.10
2023-04-05T20:44:33.982Z,0.00
2023-04-05T20:47:01.285Z,-3276.70
2023-04-05T20:49:28.234Z,-3276.70
2023-04-05T20:51:56.980Z,-3276.50
2023-04-05T20:54:24.293Z,-3276.30
2023-04-05T20:56:51.261Z,-3276.30
2023-04-05T20:59:18.102Z,-3276.20
2023-04-05T21:01:47.124Z,-3276.20
2023-04-05T21:04:14.515Z,-3276.20
2023-04-05T21:06:42.213Z,-3276.20
2023-04-05T21:09:09.531Z,-3276.20
2023-04-05T21:11:36.752Z,-3276.20
2023-04-05T21:14:03.463Z,-3276.20
2023-04-05T21:16:30.471Z,-3276.20
2023-04-05T21:18:57.641Z,-3276.20
2023-04-05T21:21:24.342Z,-3276.20
2023-04-05T21:23:51.077Z,-3276.30
2023-04-05T21:26:17.847Z,-3276.30
2023-04-05T21:28:44.566Z,-3276.30
2023-04-05T21:31:11.526Z,-3276.20
2023-04-05T21:33:39.420Z,-3276.20
2023-04-05T21:36:06.381Z,-3276.20
2023-04-05T21:38:33.362Z,-3276.10
2023-04-05T21:41:00.536Z,-3276.10
2023-04-05T21:43:27.248Z,-3276.10
2023-04-05T21:45:54.020Z,-3276.10
2023-04-05T21:48:21.152Z,-3276.00
2023-04-05T21:50:48.360Z,-3276.00
2023-04-05T21:53:15.340Z,-3275.90
2023-04-05T21:55:42.208Z,-3275.80
2023-04-05T21:58:09.063Z,-3275.60
2023-04-05T22:00:36.103Z,-3275.40
2023-04-05T22:03:02.973Z,-3275.30
2023-04-05T22:05:38.076Z,-3275.40
2023-04-05T22:08:06.267Z,-3275.50
2023-04-05T22:10:33.995Z,-3275.50
2023-04-05T22:13:00.874Z,-3275.50
2023-04-05T22:15:27.612Z,-3275.40
2023-04-05T22:17:54.331Z,-3275.40
2023-04-05T22:20:21.106Z,-3275.40
2023-04-05T22:22:47.942Z,-3275.50
2023-04-05T22:25:14.749Z,-3275.50
2023-04-05T22:27:41.582Z,-3275.50
2023-04-05T22:30:08.766Z,-3275.40
2023-04-05T22:32:36.298Z,-3275.50
2023-04-05T22:35:04.474Z,-3275.50
2023-04-05T22:37:36.516Z,-3275.50
2023-04-05T22:40:04.634Z,-3275.50
2023-04-05T22:42:31.546Z,-3275.40
2023-04-05T22:44:58.953Z,-3275.50
2023-04-05T22:47:26.001Z,-3275.40
2023-04-05T22:49:52.940Z,-3275.50
2023-04-05T22:52:20.400Z,-3275.50
2023-04-05T22:54:47.352Z,-3275.50
2023-04-05T22:57:14.120Z,-3275.50
2023-04-05T22:59:41.158Z,-3275.50
2023-04-05T23:02:08.207Z,-3275.40
2023-04-05T23:04:35.516Z,-3275.30
2023-04-05T23:07:02.302Z,-3275.30
2023-04-05T23:09:29.865Z,-3275.20
2023-04-05T23:11:56.885Z,-3275.00
2023-04-05T23:14:23.703Z,-3274.90
2023-04-05T23:16:50.590Z,-3274.90
2023-04-05T23:19:18.099Z,-3274.80
2023-04-05T23:21:45.048Z,-3274.80
2023-04-05T23:24:12.725Z,-3274.70
2023-04-05T23:26:39.517Z,-3274.60
2023-04-05T23:29:06.828Z,-3274.50
2023-04-05T23:31:33.892Z,-3274.50
2023-04-05T23:34:00.898Z,-3274.50
2023-04-05T23:36:28.641Z,-3274.60
2023-04-05T23:38:58.202Z,-3274.70
2023-04-05T23:41:25.048Z,-3274.70
2023-04-05T23:43:51.896Z,-3274.70
2023-04-05T23:46:18.725Z,-3274.70
2023-04-05T23:48:45.554Z,-3274.80
2023-04-05T23:51:12.328Z,-3274.70
2023-04-05T23:53:39.633Z,-3274.80
2023-04-05T23:56:06.769Z,-3274.80
2023-04-05T23:58:33.490Z,-3274.80
